Time;durP1;ratioP1;P1;durP2;ratioP2;P2;SDS_P1;SDS_P2;PMS_P1;PMS_P2;Temp;Humidity;BMP_temperature;BMP_pressure;BME280_temperature;BME280_humidity;BME280_pressure;Samples;Min_cycle;Max_cycle;Signal;HPM_P1;HPM_P2
2022/01/17 00:01:17;;;;;;;30.87;14.03;;;4.30;99.90;;;;;;4192263;28;20479;-79
2022/01/17 00:03:24;;;;;;;27.60;13.40;;;4.30;99.90;;;;;;4181495;28;20967;-79
2022/01/17 00:05:26;;;;;;;30.77;14.47;;;4.30;99.90;;;;;;4190049;28;20516;-79
2022/01/17 00:07:30;;;;;;;30.20;14.17;;;4.30;99.90;;;;;;4183575;28;20465;-79
2022/01/17 00:09:32;;;;;;;29.13;13.33;;;4.30;99.90;;;;;;4184068;28;20434;-78
2022/01/17 00:11:34;;;;;;;33.03;14.47;;;4.20;99.90;;;;;;4184165;28;20954;-79
2022/01/17 00:13:38;;;;;;;32.83;13.87;;;4.30;99.90;;;;;;4188442;28;20479;-80
2022/01/17 00:15:47;;;;;;;29.50;13.33;;;4.20;99.90;;;;;;4180937;28;20531;-80
2022/01/17 00:17:53;;;;;;;27.37;12.77;;;4.30;99.90;;;;;;4179092;28;20960;-81
2022/01/17 00:19:56;;;;;;;31.60;14.10;;;4.20;99.90;;;;;;4171453;28;20477;-81
2022/01/17 00:21:58;;;;;;;28.63;14.17;;;4.30;99.90;;;;;;4169888;28;20466;-80
2022/01/17 00:23:59;;;;;;;25.53;13.30;;;4.20;99.90;;;;;;4174319;28;20495;-81
2022/01/17 00:26:01;;;;;;;29.67;13.97;;;4.20;99.90;;;;;;4185475;28;20457;-80
2022/01/17 00:28:04;;;;;;;25.80;13.27;;;4.30;99.90;;;;;;4179287;28;20481;-81
2022/01/17 00:30:09;;;;;;;29.77;14.27;;;4.30;99.90;;;;;;4174046;28;20831;-81
2022/01/17 00:32:10;;;;;;;26.73;13.40;;;4.30;99.90;;;;;;4178937;28;20453;-79
2022/01/17 00:34:13;;;;;;;29.50;14.43;;;4.20;99.90;;;;;;4180714;28;20507;-79
2022/01/17 00:36:16;;;;;;;33.10;14.50;;;4.30;99.90;;;;;;4182527;28;20496;-79
2022/01/17 00:38:18;;;;;;;26.23;13.47;;;4.20;99.90;;;;;;4187380;28;20503;-80
2022/01/17 00:40:20;;;;;;;29.50;13.73;;;4.30;99.90;;;;;;4184498;28;20965;-80
2022/01/17 00:42:23;;;;;;;26.43;13.40;;;4.20;99.90;;;;;;4190243;28;20483;-80
2022/01/17 00:44:24;;;;;;;27.27;13.10;;;4.20;99.90;;;;;;4185436;28;20497;-80
2022/01/17 00:46:26;;;;;;;25.57;12.53;;;4.20;99.90;;;;;;4184732;28;20484;-81
2022/01/17 00:48:29;;;;;;;24.37;12.53;;;4.30;99.90;;;;;;4173894;28;20474;-80
2022/01/17 00:50:31;;;;;;;26.33;12.80;;;4.20;99.90;;;;;;4167354;28;20886;-80
2022/01/17 00:52:34;;;;;;;27.33;13.03;;;4.30;99.90;;;;;;4167560;28;20486;-80
2022/01/17 00:54:36;;;;;;;25.60;11.93;;;4.30;99.90;;;;;;4166675;28;20496;-80
2022/01/17 00:56:38;;;;;;;24.57;12.27;;;4.30;99.90;;;;;;4184418;28;20804;-80
2022/01/17 00:58:40;;;;;;;28.47;13.77;;;4.90;99.90;;;;;;4172973;28;20474;-80
2022/01/17 01:00:42;;;;;;;25.20;12.70;;;4.30;99.90;;;;;;4177580;28;20457;-79
2022/01/17 01:02:45;;;;;;;24.67;12.37;;;4.30;99.90;;;;;;4185474;28;20814;-81
2022/01/17 01:04:47;;;;;;;27.03;13.40;;;4.30;99.90;;;;;;4185214;28;20542;-81
2022/01/17 01:06:48;;;;;;;24.23;12.73;;;4.30;99.90;;;;;;4187569;28;20518;-80
2022/01/17 01:08:51;;;;;;;25.70;12.83;;;4.40;99.90;;;;;;4176295;28;20495;-80
2022/01/17 01:10:53;;;;;;;23.17;11.90;;;4.30;99.90;;;;;;4174539;28;20469;-80
2022/01/17 01:12:55;;;;;;;25.40;12.90;;;4.40;99.90;;;;;;4175198;28;20526;-80
2022/01/17 01:14:57;;;;;;;26.83;13.53;;;4.40;99.90;;;;;;4172516;28;20508;-80
2022/01/17 01:17:07;;;;;;;24.47;12.53;;;4.40;99.90;;;;;;4187252;28;20967;-80
2022/01/17 01:19:26;;;;;;;25.00;12.60;;;4.40;99.90;;;;;;4183385;28;20469;-79
2022/01/17 01:21:46;;;;;;;26.77;12.10;;;4.30;99.90;;;;;;4183068;28;20826;-80
2022/01/17 01:28:28;;;;;;;25.83;12.10;;;4.30;99.90;;;;;;4190300;28;20464;-79
2022/01/17 01:30:30;;;;;;;22.83;12.13;;;4.40;99.90;;;;;;4188121;28;20539;-80
2022/01/17 01:32:39;;;;;;;24.93;12.30;;;4.40;99.90;;;;;;4186071;28;20461;-79
2022/01/17 01:34:45;;;;;;;24.53;11.83;;;4.40;99.90;;;;;;4183122;28;20512;-80
2022/01/17 01:36:48;;;;;;;20.73;10.73;;;5.10;99.90;;;;;;4188802;28;20496;-79
2022/01/17 01:38:50;;;;;;;22.03;11.20;;;4.30;99.90;;;;;;4182307;28;20473;-78
2022/01/17 01:40:51;;;;;;;20.33;11.00;;;4.40;99.90;;;;;;4200650;28;20495;-79
2022/01/17 01:42:55;;;;;;;21.10;10.67;;;4.40;99.90;;;;;;4198211;28;20625;-78
2022/01/17 01:44:57;;;;;;;19.17;10.80;;;4.40;99.90;;;;;;4181928;28;20473;-80
2022/01/17 01:46:59;;;;;;;19.80;10.93;;;4.40;99.90;;;;;;4183593;28;20457;-80
2022/01/17 01:49:01;;;;;;;22.20;11.20;;;4.40;99.90;;;;;;4176283;28;20469;-83
2022/01/17 01:51:03;;;;;;;24.13;11.07;;;4.40;99.90;;;;;;4182766;28;20453;-80
2022/01/17 01:53:05;;;;;;;19.20;10.50;;;4.70;99.90;;;;;;4189657;28;20457;-80
2022/01/17 01:55:08;;;;;;;23.60;11.90;;;4.40;99.90;;;;;;4185173;28;20568;-79
2022/01/17 01:57:10;;;;;;;19.73;10.83;;;4.40;99.90;;;;;;4181508;28;20496;-80
2022/01/17 01:59:16;;;;;;;23.07;11.60;;;4.40;99.90;;;;;;4190064;28;20475;-79
2022/01/17 02:01:18;;;;;;;21.50;12.07;;;4.40;99.90;;;;;;4188651;28;20457;-80
2022/01/17 02:03:20;;;;;;;22.83;11.50;;;4.40;99.90;;;;;;4179015;28;20449;-79
2022/01/17 02:05:22;;;;;;;20.97;11.40;;;4.40;99.90;;;;;;4184571;28;20947;-79
2022/01/17 02:07:24;;;;;;;21.47;11.73;;;4.40;99.90;;;;;;4187941;28;20456;-79
2022/01/17 02:09:25;;;;;;;22.03;11.33;;;4.30;99.90;;;;;;4189335;28;20445;-80
2022/01/17 02:11:27;;;;;;;25.97;11.90;;;4.30;99.90;;;;;;4189500;28;20960;-80
2022/01/17 02:13:29;;;;;;;21.67;11.67;;;4.40;99.90;;;;;;4181684;28;20442;-80
2022/01/17 02:15:32;;;;;;;24.97;11.27;;;4.30;99.90;;;;;;4175655;28;20521;-80
2022/01/17 02:17:40;;;;;;;23.27;12.27;;;4.30;99.90;;;;;;4182965;28;20458;-79
2022/01/17 02:19:46;;;;;;;24.10;11.90;;;4.40;99.90;;;;;;4174089;28;20467;-80
2022/01/17 02:21:50;;;;;;;21.07;11.13;;;4.30;99.90;;;;;;4175106;28;20473;-80
2022/01/17 02:23:54;;;;;;;23.13;11.03;;;4.30;99.90;;;;;;4177637;28;20493;-80
2022/01/17 02:25:56;;;;;;;22.17;11.57;;;4.40;99.90;;;;;;4185333;28;20507;-81
2022/01/17 02:27:58;;;;;;;20.83;10.83;;;4.30;99.90;;;;;;4183079;28;20460;-80
2022/01/17 02:29:59;;;;;;;19.83;10.77;;;4.30;99.90;;;;;;4175522;28;20472;-81
2022/01/17 02:32:01;;;;;;;20.47;10.60;;;4.30;99.90;;;;;;4177603;28;20477;-81
2022/01/17 02:34:03;;;;;;;21.03;11.07;;;4.30;99.90;;;;;;4181617;28;20469;-81
2022/01/17 02:36:06;;;;;;;21.47;10.13;;;4.30;99.90;;;;;;4167844;28;20489;-81
2022/01/17 02:38:10;;;;;;;20.13;11.20;;;4.30;99.90;;;;;;4184880;28;20895;-81
2022/01/17 02:40:13;;;;;;;19.57;10.17;;;4.40;99.90;;;;;;4184036;28;21014;-80
2022/01/17 02:42:19;;;;;;;17.00;9.43;;;4.30;99.90;;;;;;4184141;28;20531;-80
2022/01/17 02:44:20;;;;;;;19.80;10.23;;;4.40;99.90;;;;;;4179822;28;20521;-80
2022/01/17 02:46:28;;;;;;;18.60;9.33;;;4.40;99.90;;;;;;4176278;28;21138;-80
2022/01/17 02:48:33;;;;;;;19.03;9.53;;;4.40;99.90;;;;;;4176501;28;20465;-80
2022/01/17 02:50:36;;;;;;;16.33;8.80;;;4.40;99.90;;;;;;4176110;28;20486;-81
2022/01/17 02:52:38;;;;;;;16.30;8.80;;;4.40;99.90;;;;;;4174451;28;20893;-81
2022/01/17 02:54:41;;;;;;;16.83;8.80;;;4.40;99.90;;;;;;4172250;28;20490;-80
2022/01/17 02:56:42;;;;;;;17.53;8.73;;;4.50;99.90;;;;;;4174688;28;20986;-81
2022/01/17 02:58:44;;;;;;;16.60;8.07;;;4.50;99.90;;;;;;4183804;28;20503;-80
2022/01/17 03:00:46;;;;;;;16.20;8.23;;;4.50;99.90;;;;;;4182908;28;20519;-80
2022/01/17 03:02:49;;;;;;;15.93;8.33;;;4.50;99.90;;;;;;4182517;28;20469;-81
2022/01/17 03:04:51;;;;;;;17.10;8.43;;;4.50;99.90;;;;;;4181269;28;20481;-81
2022/01/17 03:06:53;;;;;;;20.43;8.47;;;4.50;99.90;;;;;;4185976;28;20457;-80
2022/01/17 03:08:55;;;;;;;20.33;9.23;;;4.50;99.90;;;;;;4180578;28;20527;-81
2022/01/17 03:11:00;;;;;;;16.87;9.20;;;4.60;99.90;;;;;;4182435;28;20906;-81
2022/01/17 03:13:03;;;;;;;14.60;7.97;;;4.60;99.90;;;;;;4183550;28;20492;-80
2022/01/17 03:15:06;;;;;;;14.50;8.53;;;4.60;99.90;;;;;;4187755;28;20539;-81
2022/01/17 03:17:08;;;;;;;14.10;7.63;;;4.60;99.90;;;;;;4186782;28;20497;-80
2022/01/17 03:19:10;;;;;;;13.03;7.80;;;4.60;99.90;;;;;;4187071;28;20492;-80
2022/01/17 03:21:15;;;;;;;13.87;7.37;;;4.60;99.90;;;;;;4188494;28;20703;-81
2022/01/17 03:23:16;;;;;;;13.73;7.43;;;4.60;99.90;;;;;;4176570;28;20454;-81
2022/01/17 03:25:18;;;;;;;14.83;7.70;;;4.60;99.90;;;;;;4177012;28;20465;-80
2022/01/17 03:27:21;;;;;;;16.47;7.97;;;4.60;99.90;;;;;;4172756;28;20470;-81
2022/01/17 03:29:23;;;;;;;16.07;8.07;;;4.60;99.90;;;;;;4182054;28;20457;-81
2022/01/17 03:31:25;;;;;;;18.57;8.57;;;4.70;99.90;;;;;;4189090;28;20472;-80
2022/01/17 03:33:27;;;;;;;14.90;7.70;;;4.70;99.90;;;;;;4189912;28;20926;-80
2022/01/17 03:35:29;;;;;;;16.27;8.30;;;4.70;99.90;;;;;;4188733;28;20473;-80
2022/01/17 03:37:31;;;;;;;13.67;7.20;;;4.60;99.90;;;;;;4190361;28;20484;-79
2022/01/17 03:39:33;;;;;;;13.67;7.40;;;4.60;99.90;;;;;;4189674;28;20784;-81
2022/01/17 03:41:34;;;;;;;12.60;7.20;;;4.70;99.90;;;;;;4190818;28;20456;-79
2022/01/17 03:43:37;;;;;;;14.67;7.37;;;4.70;99.90;;;;;;4185141;28;20520;-80
2022/01/17 03:45:40;;;;;;;12.23;6.60;;;4.70;99.90;;;;;;4175467;28;20458;-81
2022/01/17 03:47:44;;;;;;;12.73;7.10;;;4.70;99.90;;;;;;4176673;28;20454;-81
2022/01/17 03:49:45;;;;;;;11.87;6.23;;;4.70;99.90;;;;;;4184703;28;20488;-80
2022/01/17 03:51:47;;;;;;;10.30;5.93;;;4.70;99.90;;;;;;4183087;28;20483;-79
2022/01/17 03:53:49;;;;;;;14.07;6.30;;;4.80;99.90;;;;;;4168970;28;20478;-81
2022/01/17 03:55:51;;;;;;;10.53;5.80;;;4.70;99.90;;;;;;4177104;28;20514;-81
2022/01/17 03:57:53;;;;;;;12.60;6.57;;;4.80;99.90;;;;;;4173743;28;20507;-81
2022/01/17 03:59:56;;;;;;;10.23;5.77;;;4.80;99.90;;;;;;4177295;28;20457;-82
2022/01/17 04:01:57;;;;;;;12.57;6.80;;;4.70;99.90;;;;;;4185069;28;21676;-81
2022/01/17 04:03:59;;;;;;;11.77;6.10;;;4.70;99.90;;;;;;4186297;28;20508;-81
2022/01/17 04:06:01;;;;;;;11.23;6.07;;;4.70;99.90;;;;;;4184060;28;20850;-81
2022/01/17 04:08:04;;;;;;;10.80;5.60;;;4.80;99.90;;;;;;4184675;28;20484;-81
2022/01/17 04:10:07;;;;;;;12.57;6.47;;;4.70;99.90;;;;;;4181987;28;20522;-80
2022/01/17 04:12:09;;;;;;;10.20;5.57;;;4.80;99.90;;;;;;4185470;28;20479;-81
2022/01/17 04:14:10;;;;;;;10.13;5.40;;;4.80;99.90;;;;;;4178224;28;20465;-81
2022/01/17 04:16:14;;;;;;;12.60;6.13;;;4.80;99.90;;;;;;4185503;28;20899;-81
2022/01/17 04:18:20;;;;;;;12.27;6.17;;;4.80;99.90;;;;;;4169597;28;20883;-81
2022/01/17 04:20:26;;;;;;;12.50;6.20;;;4.80;99.90;;;;;;4173247;28;20461;-80
2022/01/17 04:22:28;;;;;;;12.47;6.27;;;4.80;99.90;;;;;;4189837;28;20448;-79
2022/01/17 04:24:30;;;;;;;11.47;5.87;;;4.80;99.90;;;;;;4177200;28;20869;-81
2022/01/17 04:26:31;;;;;;;15.37;6.87;;;4.90;99.90;;;;;;4179844;28;20449;-82
2022/01/17 04:28:33;;;;;;;14.50;7.00;;;4.80;99.90;;;;;;4171818;28;20883;-81
2022/01/17 04:30:35;;;;;;;11.80;6.00;;;4.80;99.90;;;;;;4176347;28;20457;-81
2022/01/17 04:32:41;;;;;;;10.90;5.80;;;4.90;99.90;;;;;;4185378;28;20475;-78
2022/01/17 04:34:43;;;;;;;10.10;5.57;;;4.90;99.90;;;;;;4182198;28;21020;-79
2022/01/17 04:36:44;;;;;;;12.03;5.77;;;4.90;99.90;;;;;;4185414;28;20599;-81
2022/01/17 04:38:46;;;;;;;12.93;6.00;;;4.90;99.90;;;;;;4182226;28;20855;-80
2022/01/17 04:41:01;;;;;;;13.20;6.20;;;4.70;99.90;;;;;;4174966;28;20477;-81
2022/01/17 04:43:05;;;;;;;11.27;5.63;;;4.90;99.90;;;;;;4173104;28;20512;-80
2022/01/17 04:45:07;;;;;;;9.63;5.30;;;4.90;99.90;;;;;;4185947;28;20473;-81
2022/01/17 04:47:09;;;;;;;12.10;6.00;;;4.90;99.90;;;;;;4190829;28;20460;-81
2022/01/17 04:49:12;;;;;;;13.17;5.83;;;4.90;99.90;;;;;;4198730;28;20604;-78
2022/01/17 04:51:14;;;;;;;9.60;5.00;;;4.90;99.90;;;;;;4186637;28;20481;-79
2022/01/17 04:53:18;;;;;;;10.00;4.80;;;4.90;99.90;;;;;;4190238;28;20496;-79
2022/01/17 04:55:20;;;;;;;10.43;5.00;;;4.90;99.90;;;;;;4176727;22;20529;-79
2022/01/17 04:57:23;;;;;;;12.10;4.67;;;4.90;99.90;;;;;;4148584;28;20495;-80
2022/01/17 04:59:24;;;;;;;8.77;4.80;;;5.00;99.90;;;;;;4147048;28;20475;-80
2022/01/17 05:01:26;;;;;;;11.80;4.83;;;5.00;99.90;;;;;;4147561;28;20959;-80
2022/01/17 05:03:28;;;;;;;10.57;5.30;;;5.00;99.90;;;;;;4146139;28;20473;-80
2022/01/17 05:05:31;;;;;;;9.47;4.57;;;5.00;99.90;;;;;;4156867;28;20471;-80
2022/01/17 05:07:33;;;;;;;8.83;4.47;;;5.00;99.90;;;;;;4164369;28;20975;-80
2022/01/17 05:09:35;;;;;;;9.50;4.50;;;5.00;99.90;;;;;;4164071;28;20832;-80
2022/01/17 05:11:37;;;;;;;10.23;4.53;;;5.00;99.90;;;;;;4160624;28;20517;-80
2022/01/17 05:13:45;;;;;;;8.53;4.57;;;5.10;99.90;;;;;;4165707;28;20466;-80
2022/01/17 05:15:51;;;;;;;9.90;4.00;;;5.10;99.90;;;;;;4156420;28;20473;-80
2022/01/17 05:18:12;;;;;;;10.27;4.30;;;5.10;99.90;;;;;;4165560;28;20493;-80
2022/01/17 05:20:13;;;;;;;8.20;3.73;;;5.10;99.90;;;;;;4165732;28;20953;-80
2022/01/17 05:22:16;;;;;;;6.67;4.00;;;5.20;99.90;;;;;;4164912;28;20516;-80
2022/01/17 05:24:18;;;;;;;7.13;3.33;;;5.20;99.90;;;;;;4159676;28;20235;-80
2022/01/17 05:26:20;;;;;;;9.23;3.90;;;5.20;99.90;;;;;;4169036;28;20455;-80
2022/01/17 05:28:22;;;;;;;11.37;4.83;;;5.20;99.90;;;;;;4161528;28;20510;-80
2022/01/17 05:30:25;;;;;;;10.60;4.63;;;5.30;99.90;;;;;;4164406;28;20546;-80
2022/01/17 05:32:27;;;;;;;10.67;4.23;;;5.30;99.90;;;;;;4160461;28;20471;-80
2022/01/17 05:34:28;;;;;;;10.73;4.80;;;5.30;99.90;;;;;;4164640;28;20482;-80
2022/01/17 05:36:30;;;;;;;11.33;4.10;;;5.30;99.90;;;;;;4165872;28;20445;-80
2022/01/17 05:38:33;;;;;;;11.33;4.13;;;5.30;99.90;;;;;;4165739;28;20454;-80
2022/01/17 05:40:35;;;;;;;8.20;3.90;;;5.30;99.90;;;;;;4153960;28;20487;-80
2022/01/17 05:42:37;;;;;;;9.63;4.07;;;5.30;99.90;;;;;;4162517;28;20481;-80
2022/01/17 05:44:39;;;;;;;9.60;4.00;;;5.30;99.90;;;;;;4159112;28;20901;-80
2022/01/17 05:46:41;;;;;;;10.83;4.10;;;5.30;99.90;;;;;;4159240;28;20486;-80
2022/01/17 05:48:42;;;;;;;8.70;3.30;;;5.30;99.90;;;;;;4163660;28;20443;-80
2022/01/17 05:50:44;;;;;;;7.70;3.10;;;5.30;99.90;;;;;;4165105;28;20517;-80
2022/01/17 05:52:46;;;;;;;8.87;2.77;;;5.30;99.90;;;;;;4152198;28;20455;-80
2022/01/17 05:54:49;;;;;;;7.00;2.40;;;5.30;99.90;;;;;;4151186;28;20518;-80
2022/01/17 05:56:51;;;;;;;8.93;2.50;;;5.40;99.90;;;;;;4151346;28;20540;-80
2022/01/17 05:58:53;;;;;;;8.17;2.20;;;5.40;99.90;;;;;;4168893;28;20466;-80
2022/01/17 06:00:54;;;;;;;5.00;2.03;;;5.40;99.90;;;;;;4166782;28;20890;-79
2022/01/17 06:02:56;;;;;;;9.37;1.80;;;5.40;99.90;;;;;;4153098;28;20439;-79
2022/01/17 06:05:00;;;;;;;8.80;1.83;;;5.40;99.90;;;;;;4149896;28;21018;-80
2022/01/17 06:07:02;;;;;;;8.03;2.53;;;5.40;99.90;;;;;;4150878;28;20455;-79
2022/01/17 06:09:04;;;;;;;5.30;1.97;;;5.40;99.90;;;;;;4151420;28;20486;-79
2022/01/17 06:11:07;;;;;;;4.60;1.40;;;5.40;99.90;;;;;;4162425;28;20470;-80
2022/01/17 06:13:09;;;;;;;7.40;1.20;;;5.40;99.90;;;;;;4159985;28;20955;-80
2022/01/17 06:15:11;;;;;;;2.33;0.80;;;5.40;99.90;;;;;;4158318;28;20483;-80
2022/01/17 06:17:15;;;;;;;3.27;1.13;;;5.40;99.90;;;;;;4166071;28;20497;-80
2022/01/17 06:19:17;;;;;;;3.30;1.10;;;5.40;99.90;;;;;;4166024;28;20512;-79
2022/01/17 06:21:19;;;;;;;4.97;1.27;;;5.50;99.90;;;;;;4164989;28;20469;-80
2022/01/17 06:23:21;;;;;;;11.87;1.27;;;5.40;99.90;;;;;;4161010;28;20467;-80
2022/01/17 06:25:23;;;;;;;9.47;1.37;;;5.40;99.90;;;;;;4163289;28;20994;-80
2022/01/17 06:27:26;;;;;;;7.87;1.13;;;5.40;99.90;;;;;;4161876;28;21111;-80
2022/01/17 06:29:27;;;;;;;5.17;1.10;;;5.40;99.90;;;;;;4161280;28;20501;-80
2022/01/17 06:31:29;;;;;;;7.60;0.90;;;5.40;99.90;;;;;;4157990;28;20495;-80
2022/01/17 06:33:31;;;;;;;3.97;1.07;;;5.40;99.90;;;;;;4155708;28;20462;-80
2022/01/17 06:35:32;;;;;;;7.03;1.50;;;5.40;99.90;;;;;;4150650;28;20501;-80
2022/01/17 06:37:35;;;;;;;5.30;0.90;;;5.40;99.90;;;;;;4163042;28;20482;-80
2022/01/17 06:39:37;;;;;;;5.47;1.07;;;5.40;99.90;;;;;;4157432;28;20485;-79
2022/01/17 06:41:39;;;;;;;4.27;1.00;;;5.40;99.90;;;;;;4164466;28;20516;-79
2022/01/17 06:43:43;;;;;;;7.27;0.63;;;5.40;99.90;;;;;;4163467;28;20477;-79
2022/01/17 06:45:45;;;;;;;7.30;1.20;;;5.40;99.90;;;;;;4166283;28;20954;-80
2022/01/17 06:47:47;;;;;;;6.93;1.13;;;5.40;99.90;;;;;;4161390;28;20867;-80
2022/01/17 06:49:49;;;;;;;4.50;0.90;;;5.40;99.90;;;;;;4158246;28;20465;-80
2022/01/17 06:51:50;;;;;;;6.93;1.23;;;5.40;99.90;;;;;;4159709;28;20523;-80
2022/01/17 06:53:52;;;;;;;3.63;0.97;;;5.40;99.90;;;;;;4161557;28;20961;-82
2022/01/17 06:55:54;;;;;;;9.43;1.17;;;5.40;99.90;;;;;;4158127;28;20604;-79
2022/01/17 06:57:56;;;;;;;7.73;0.87;;;5.40;99.90;;;;;;4159348;28;20491;-80
2022/01/17 06:59:59;;;;;;;8.53;1.90;;;5.40;99.90;;;;;;4159653;28;20470;-80
2022/01/17 07:02:01;;;;;;;9.97;1.20;;;5.40;99.90;;;;;;4156785;28;20524;-80
2022/01/17 07:04:02;;;;;;;7.17;1.27;;;5.40;99.90;;;;;;4156163;28;20505;-80
2022/01/17 07:06:04;;;;;;;7.30;1.47;;;5.40;99.90;;;;;;4154729;28;20512;-81
2022/01/17 07:08:06;;;;;;;8.40;1.10;;;5.40;99.90;;;;;;4155564;28;20460;-80
2022/01/17 07:10:08;;;;;;;9.07;1.20;;;5.40;99.90;;;;;;4156122;28;21170;-80
2022/01/17 07:12:10;;;;;;;5.47;1.03;;;5.40;99.90;;;;;;4158102;28;20442;-80
2022/01/17 07:14:13;;;;;;;6.83;1.37;;;5.40;99.90;;;;;;4156841;28;20506;-81
2022/01/17 07:16:19;;;;;;;6.70;1.03;;;5.40;99.90;;;;;;4154950;28;20490;-81
2022/01/17 07:18:21;;;;;;;5.73;0.93;;;5.40;99.90;;;;;;4158184;28;20516;-80
2022/01/17 07:20:23;;;;;;;8.67;1.33;;;5.40;99.90;;;;;;4158222;28;20525;-80
2022/01/17 07:22:24;;;;;;;5.77;1.20;;;5.40;99.90;;;;;;4155897;28;20454;-80
2022/01/17 07:24:26;;;;;;;6.07;1.80;;;5.40;99.90;;;;;;4155172;28;20581;-80
2022/01/17 07:26:28;;;;;;;7.23;1.43;;;5.40;99.90;;;;;;4157262;28;20474;-81
2022/01/17 07:28:29;;;;;;;7.30;1.30;;;5.30;99.90;;;;;;4154013;28;20493;-80
2022/01/17 07:30:31;;;;;;;7.47;1.40;;;5.40;99.90;;;;;;4157417;28;20504;-80
2022/01/17 07:32:34;;;;;;;7.30;1.30;;;5.30;99.90;;;;;;4156708;28;20474;-80
2022/01/17 07:34:36;;;;;;;7.53;1.33;;;5.40;99.90;;;;;;4158657;28;20501;-81
2022/01/17 07:36:38;;;;;;;4.90;1.40;;;5.40;99.90;;;;;;4153576;28;20497;-80
2022/01/17 07:38:40;;;;;;;7.03;1.37;;;5.30;99.90;;;;;;4157485;28;20498;-80
2022/01/17 07:40:43;;;;;;;7.20;1.10;;;5.40;99.90;;;;;;4157128;28;20505;-81
2022/01/17 07:42:44;;;;;;;6.40;1.10;;;5.30;99.90;;;;;;4156499;28;20462;-80
2022/01/17 07:44:53;;;;;;;7.47;1.13;;;5.30;99.90;;;;;;4155639;28;21463;-80
2022/01/17 07:46:57;;;;;;;14.67;1.73;;;5.30;99.90;;;;;;4158892;28;21409;-80
2022/01/17 07:49:10;;;;;;;9.63;1.37;;;5.30;99.90;;;;;;4155214;28;20470;-80
2022/01/17 07:51:12;;;;;;;9.27;1.27;;;5.30;99.90;;;;;;4155521;28;20556;-80
2022/01/17 07:53:16;;;;;;;6.50;1.20;;;5.30;99.90;;;;;;4154200;28;20496;-80
2022/01/17 07:55:19;;;;;;;9.20;1.50;;;5.30;99.90;;;;;;4156676;28;20494;-80
2022/01/17 07:57:21;;;;;;;6.40;1.40;;;5.30;99.90;;;;;;4159285;28;20469;-81
2022/01/17 07:59:23;;;;;;;5.47;1.07;;;5.30;99.90;;;;;;4158267;28;20438;-80
2022/01/17 08:01:25;;;;;;;7.50;1.27;;;5.30;99.90;;;;;;4156764;28;20458;-80
2022/01/17 08:03:26;;;;;;;7.33;0.93;;;5.30;99.90;;;;;;4158843;28;20507;-80
2022/01/17 08:05:30;;;;;;;6.87;1.07;;;5.30;99.90;;;;;;4154583;28;20589;-80
2022/01/17 08:07:31;;;;;;;6.97;1.10;;;5.30;99.90;;;;;;4150888;28;20489;-80
2022/01/17 08:09:34;;;;;;;5.10;1.03;;;5.30;99.90;;;;;;4157190;28;20485;-80
2022/01/17 08:11:35;;;;;;;7.87;1.10;;;5.30;99.90;;;;;;4156674;28;20490;-80
2022/01/17 08:13:37;;;;;;;10.43;1.37;;;5.30;99.90;;;;;;4154784;28;20490;-80
2022/01/17 08:15:39;;;;;;;6.17;1.00;;;5.30;99.90;;;;;;4154753;28;20478;-80
2022/01/17 08:17:41;;;;;;;7.97;1.30;;;5.30;99.90;;;;;;4156309;28;21018;-80
2022/01/17 08:19:43;;;;;;;7.80;1.17;;;5.30;99.90;;;;;;4155868;28;20852;-80
2022/01/17 08:21:47;;;;;;;5.27;1.10;;;5.30;99.90;;;;;;4159244;28;20537;-81
2022/01/17 08:23:48;;;;;;;5.17;1.10;;;5.30;99.90;;;;;;4157163;28;20483;-81
2022/01/17 08:25:50;;;;;;;7.33;1.10;;;5.40;99.90;;;;;;4158362;28;20796;-81
2022/01/17 08:27:52;;;;;;;6.07;1.43;;;5.40;99.90;;;;;;4156215;28;20962;-80
2022/01/17 08:29:54;;;;;;;6.40;1.20;;;5.40;99.90;;;;;;4157778;28;20468;-80
2022/01/17 08:31:56;;;;;;;7.93;1.00;;;5.40;99.90;;;;;;4153554;28;21048;-81
2022/01/17 08:33:58;;;;;;;5.20;0.90;;;5.40;99.90;;;;;;4157789;28;20470;-81
2022/01/17 08:35:59;;;;;;;4.47;1.10;;;5.40;99.90;;;;;;4155318;28;20458;-81
2022/01/17 08:38:02;;;;;;;4.80;0.90;;;5.40;99.90;;;;;;4158607;28;20482;-81
2022/01/17 08:40:07;;;;;;;9.70;1.23;;;5.40;99.90;;;;;;4155122;28;20455;-80
2022/01/17 08:42:10;;;;;;;5.77;1.20;;;5.40;99.90;;;;;;4152878;28;20503;-81
2022/01/17 08:44:13;;;;;;;9.07;1.20;;;5.40;99.90;;;;;;4151919;28;20517;-81
2022/01/17 08:46:15;;;;;;;4.90;1.73;;;5.40;99.90;;;;;;4157082;28;20446;-81
2022/01/17 08:48:19;;;;;;;7.37;0.90;;;5.40;99.90;;;;;;4153683;28;20475;-80
2022/01/17 08:50:23;;;;;;;6.67;0.90;;;5.40;99.90;;;;;;4157084;28;20905;-81
2022/01/17 08:52:25;;;;;;;4.83;1.60;;;5.40;99.90;;;;;;4151745;28;20474;-81
2022/01/17 08:54:29;;;;;;;10.63;1.10;;;5.40;99.90;;;;;;4154084;28;20490;-81
2022/01/17 08:56:31;;;;;;;4.43;0.97;;;5.40;99.90;;;;;;4155187;28;20590;-81
2022/01/17 08:58:33;;;;;;;6.17;1.30;;;5.40;99.90;;;;;;4155851;28;20477;-81
2022/01/17 09:00:35;;;;;;;11.73;1.47;;;5.50;99.90;;;;;;4153391;28;20467;-81
2022/01/17 09:02:36;;;;;;;5.80;1.30;;;5.50;99.90;;;;;;4155739;28;20459;-81
2022/01/17 09:04:41;;;;;;;5.87;1.50;;;5.50;99.90;;;;;;4155842;28;20485;-80
2022/01/17 09:06:42;;;;;;;3.57;0.80;;;5.50;99.90;;;;;;4153659;28;20462;-81
2022/01/17 09:08:44;;;;;;;7.87;1.50;;;5.50;99.90;;;;;;4156996;28;20466;-80
2022/01/17 09:10:48;;;;;;;3.47;0.70;;;5.50;99.90;;;;;;4155499;28;20477;-81
2022/01/17 09:12:51;;;;;;;5.20;1.00;;;5.50;99.90;;;;;;4154087;28;20469;-80
2022/01/17 09:14:52;;;;;;;4.37;0.80;;;5.50;99.90;;;;;;4154144;28;20526;-81
2022/01/17 09:16:54;;;;;;;3.80;0.70;;;5.50;99.90;;;;;;4157414;28;20495;-81
2022/01/17 09:18:56;;;;;;;4.37;1.00;;;5.50;99.90;;;;;;4154817;28;20916;-81
2022/01/17 09:20:58;;;;;;;5.40;1.00;;;5.50;99.90;;;;;;4157295;28;20497;-80
2022/01/17 09:22:59;;;;;;;3.30;0.83;;;5.50;99.90;;;;;;4156493;28;20461;-80
2022/01/17 09:25:01;;;;;;;4.90;0.60;;;5.50;99.90;;;;;;4157343;28;20532;-80
2022/01/17 09:27:07;;;;;;;5.43;0.80;;;5.50;99.90;;;;;;4157562;28;20533;-80
2022/01/17 09:29:08;;;;;;;4.10;0.77;;;5.40;99.90;;;;;;4159812;28;20475;-81
2022/01/17 09:31:10;;;;;;;7.23;1.00;;;5.40;99.90;;;;;;4159308;28;20541;-80
2022/01/17 09:33:12;;;;;;;7.23;1.00;;;5.40;99.90;;;;;;4156615;28;21039;-80
2022/01/17 09:35:13;;;;;;;3.20;0.83;;;5.40;99.90;;;;;;4157141;28;20568;-80
2022/01/17 09:37:15;;;;;;;3.13;0.93;;;5.40;99.90;;;;;;4156680;28;21315;-81
2022/01/17 09:39:17;;;;;;;4.10;1.10;;;5.40;99.90;;;;;;4158312;28;20505;-80
2022/01/17 09:41:19;;;;;;;6.27;1.00;;;5.40;99.90;;;;;;4160919;28;20486;-80
2022/01/17 09:43:22;;;;;;;3.83;0.70;;;5.40;99.90;;;;;;4155799;28;20514;-80
2022/01/17 09:45:24;;;;;;;4.83;0.77;;;5.40;99.90;;;;;;4159041;28;20531;-80
2022/01/17 09:47:26;;;;;;;4.70;0.60;;;5.40;99.90;;;;;;4157778;28;20453;-80
2022/01/17 09:49:35;;;;;;;4.77;0.90;;;5.40;99.90;;;;;;4151895;28;20744;-81
2022/01/17 09:51:51;;;;;;;3.00;1.00;;;5.40;99.90;;;;;;4149400;28;20469;-80
2022/01/17 09:53:54;;;;;;;3.10;0.60;;;5.50;99.90;;;;;;4155489;28;20477;-80
2022/01/17 09:56:01;;;;;;;3.87;0.60;;;5.50;99.90;;;;;;4150582;28;21334;-80
2022/01/17 09:58:07;;;;;;;2.13;0.70;;;5.50;99.90;;;;;;4149068;28;20700;-80
2022/01/17 10:00:13;;;;;;;2.20;0.60;;;5.50;99.90;;;;;;4147777;28;20465;-80
2022/01/17 10:02:16;;;;;;;3.17;0.67;;;5.60;99.90;;;;;;4147882;28;20528;-80
2022/01/17 10:04:18;;;;;;;3.87;0.73;;;5.60;99.90;;;;;;4154795;28;20501;-80
2022/01/17 10:06:20;;;;;;;4.00;0.70;;;5.60;99.90;;;;;;4150957;28;20510;-80
2022/01/17 10:08:22;;;;;;;6.00;1.00;;;5.60;99.90;;;;;;4145089;28;20829;-80
2022/01/17 10:10:38;;;;;;;6.40;1.00;;;5.60;99.90;;;;;;4148916;28;21640;-80
2022/01/17 10:12:40;;;;;;;7.37;0.80;;;5.60;99.90;;;;;;4149232;28;20474;-81
2022/01/17 10:14:44;;;;;;;6.27;0.90;;;5.70;99.90;;;;;;4146637;28;20593;-80
2022/01/17 10:16:47;;;;;;;4.97;0.97;;;5.70;99.90;;;;;;4147433;28;21026;-80
2022/01/17 10:18:54;;;;;;;2.63;1.00;;;5.70;99.90;;;;;;4150060;28;21165;-80
2022/01/17 10:21:01;;;;;;;4.53;0.90;;;5.70;99.90;;;;;;4144256;28;20518;-80
2022/01/17 10:23:28;;;;;;;3.83;0.80;;;5.70;99.90;;;;;;4144519;28;20529;-80
2022/01/17 10:25:49;;;;;;;3.33;0.80;;;5.70;99.90;;;;;;4145004;28;20558;-80
2022/01/17 10:28:12;;;;;;;4.83;0.77;;;5.70;99.90;;;;;;4144481;28;21674;-80
2022/01/17 10:30:34;;;;;;;3.53;1.00;;;5.80;99.90;;;;;;4149586;28;20525;-80
2022/01/17 10:35:10;;;;;;;5.23;0.70;;;5.80;99.90;;;;;;4145576;28;20490;-79
2022/01/17 10:37:12;;;;;;;2.07;1.10;;;5.80;99.90;;;;;;4148058;28;20597;-80
2022/01/17 10:39:14;;;;;;;3.33;0.73;;;5.80;99.90;;;;;;4143752;28;20558;-80
2022/01/17 10:41:25;;;;;;;4.33;0.90;;;5.80;99.90;;;;;;4146072;28;20475;-80
2022/01/17 10:43:34;;;;;;;1.87;0.70;;;5.80;99.90;;;;;;4146573;28;21206;-80
2022/01/17 10:45:41;;;;;;;5.23;0.93;;;5.80;99.90;;;;;;4147492;28;20474;-79
2022/01/17 10:47:45;;;;;;;4.47;0.90;;;5.80;99.90;;;;;;4148962;28;20949;-79
2022/01/17 10:49:49;;;;;;;2.80;0.70;;;5.80;99.90;;;;;;4140060;28;20478;-81
2022/01/17 10:51:52;;;;;;;2.40;0.77;;;5.90;99.90;;;;;;4139021;28;20466;-80